F/V Matmaco — FVNS — position and weather

sailwx.info

Track history (hours):
 
Tides and Currents Weather Stations Pressure Air Temp Water Temp Dewpoint Dewpoint Depression Visibility Wind Speed Wind Dir Waves Ship Positions

F/V Matmaco

Last reported at 2017-May-23 04:56 UTC. Time now 2017-May-23 05:05 UTC.
Position N 46°58' W 002°44'.

Length 20 m.

Type: Other ship. MMSI: 228194000.

Date/timePositionNaut miles runAvg speedWind from/ knotsBaromVisibWave heightAir tempDewpointWater temp
2017-May-23 04:56N 46°58' W 002°44'510.0
2017-May-23 04:25N 47°03' W 002°42'510.3
2017-May-23 03:56N 47°08' W 002°40'510.3
2017-May-23 03:30N 47°12' W 002°38'610.1
2017-May-23 02:56N 47°18' W 002°35'3 6.1
2017-May-23 02:30N 47°19' W 002°32'1 2.0
2017-May-23 02:00N 47°18' W 002°31'0 0.0
2017-May-23 01:28N 47°18' W 002°31'2 4.4
2017-May-23 00:59N 47°19' W 002°34'4 8.6
2017-May-23 00:30N 47°15' W 002°37'40 7.4
2017-May-22 19:05N 46°38' W 002°58'2 3.6
2017-May-22 18:33N 46°36' W 002°57'0 3.5
2017-May-22 18:30N 46°36' W 002°57'3 3.5
2017-May-22 17:46N 46°33' W 002°55'1 3.6
2017-May-22 17:30N 46°32' W 002°55'2 3.5
2017-May-22 16:56N 46°30' W 002°54'1 3.5
2017-May-22 16:30N 46°29' W 002°54'23 0.6
2017-May-21 03:12N 46°51' W 003°06'2 8.6
2017-May-21 03:00N 46°52' W 003°05'25 8.5
2017-May-21 00:01N 47°12' W 002°41'014.9
2017-May-21 00:00N 47°12' W 002°41'4 8.1
2017-May-20 23:29N 47°15' W 002°37'4 8.7
2017-May-20 23:00N 47°19' W 002°34'2 3.8
2017-May-20 22:28N 47°18' W 002°31'0 0.0
2017-May-19 13:13N 47°18' W 002°31'0 0.1
2017-May-19 13:00N 47°18' W 002°31'0 0.0
2017-May-19 08:29N 47°18' W 002°31'  
Track history (hours):
 
Tides and Currents Weather Stations Pressure Air Temp Water Temp Dewpoint Dewpoint Depression Visibility Wind Speed Wind Dir Waves Ship Positions

F/V Matmaco

Last reported at 2017-May-23 04:56 UTC. Time now 2017-May-23 05:05 UTC.
Position N 46°58' W 002°44'.

Length 20 m.

Type: Other ship. MMSI: 228194000.

Date/timePositionNaut miles runAvg speedWind from/ knotsBaromVisibWave heightAir tempDewpointWater temp
2017-May-23 04:56N 46°58' W 002°44'510.0
2017-May-23 04:25N 47°03' W 002°42'510.3
2017-May-23 03:56N 47°08' W 002°40'510.3
2017-May-23 03:30N 47°12' W 002°38'610.1
2017-May-23 02:56N 47°18' W 002°35'3 6.1
2017-May-23 02:30N 47°19' W 002°32'1 2.0
2017-May-23 02:00N 47°18' W 002°31'0 0.0
2017-May-23 01:28N 47°18' W 002°31'2 4.4
2017-May-23 00:59N 47°19' W 002°34'4 8.6
2017-May-23 00:30N 47°15' W 002°37'40 7.4
2017-May-22 19:05N 46°38' W 002°58'2 3.6
2017-May-22 18:33N 46°36' W 002°57'0 3.5
2017-May-22 18:30N 46°36' W 002°57'3 3.5
2017-May-22 17:46N 46°33' W 002°55'1 3.6
2017-May-22 17:30N 46°32' W 002°55'2 3.5
2017-May-22 16:56N 46°30' W 002°54'1 3.5
2017-May-22 16:30N 46°29' W 002°54'23 0.6
2017-May-21 03:12N 46°51' W 003°06'2 8.6
2017-May-21 03:00N 46°52' W 003°05'25 8.5
2017-May-21 00:01N 47°12' W 002°41'014.9
2017-May-21 00:00N 47°12' W 002°41'4 8.1
2017-May-20 23:29N 47°15' W 002°37'4 8.7
2017-May-20 23:00N 47°19' W 002°34'2 3.8
2017-May-20 22:28N 47°18' W 002°31'0 0.0
2017-May-19 13:13N 47°18' W 002°31'0 0.1
2017-May-19 13:00N 47°18' W 002°31'0 0.0
2017-May-19 08:29N 47°18' W 002°31'  

Dump ship's entire track history